createdAt,value
2022-07-25T00:01:33.248Z,3.80
2022-07-25T00:03:59.733Z,3.80
2022-07-25T00:06:26.594Z,5.50
2022-07-25T00:08:53.027Z,4.10
2022-07-25T00:11:19.556Z,3.80
2022-07-25T00:13:46.483Z,4.10
2022-07-25T00:16:13.114Z,4.20
2022-07-25T00:18:39.697Z,4.70
2022-07-25T00:21:06.438Z,4.50
2022-07-25T00:23:33.439Z,4.30
2022-07-25T00:26:01.317Z,4.90
2022-07-25T00:28:27.794Z,4.60
2022-07-25T00:30:55.311Z,4.30
2022-07-25T00:33:21.826Z,4.60
2022-07-25T00:35:48.200Z,5.00
2022-07-25T00:38:14.623Z,5.10
2022-07-25T00:40:41.238Z,4.80
2022-07-25T00:43:07.813Z,4.70
2022-07-25T00:45:34.257Z,4.90
2022-07-25T00:48:00.705Z,5.40
2022-07-25T00:50:27.152Z,5.10
2022-07-25T00:52:54.561Z,4.80
2022-07-25T00:55:23.902Z,5.10
2022-07-25T00:57:51.156Z,4.70
2022-07-25T01:00:18.132Z,4.70
2022-07-25T01:02:44.913Z,4.60
2022-07-25T01:05:11.845Z,4.50
2022-07-25T01:07:39.280Z,4.20
2022-07-25T01:10:07.675Z,4.70
2022-07-25T01:12:54.753Z,4.30
2022-07-25T01:15:23.741Z,4.60
2022-07-25T01:17:50.882Z,4.20
2022-07-25T01:20:25.339Z,4.30
2022-07-25T01:22:52.736Z,4.40
2022-07-25T01:25:19.251Z,4.20
2022-07-25T01:27:51.411Z,4.10
2022-07-25T01:30:23.979Z,3.60
2022-07-25T01:32:50.721Z,4.60
2022-07-25T01:35:17.387Z,4.30
2022-07-25T01:37:45.826Z,4.10
2022-07-25T01:40:13.300Z,4.40
2022-07-25T01:42:40.034Z,4.20
2022-07-25T01:45:08.740Z,4.40
2022-07-25T01:47:35.238Z,4.20
2022-07-25T01:50:01.898Z,3.60
2022-07-25T01:52:28.771Z,3.50
2022-07-25T01:54:55.303Z,4.00
2022-07-25T01:57:23.094Z,4.00
2022-07-25T01:59:59.180Z,3.70
2022-07-25T02:02:26.249Z,3.40
2022-07-25T02:04:53.174Z,3.70
2022-07-25T02:07:19.778Z,4.10
2022-07-25T02:09:46.629Z,3.80
2022-07-25T02:12:13.101Z,3.60
2022-07-25T02:14:40.292Z,4.30
2022-07-25T02:17:07.138Z,4.00
2022-07-25T02:19:33.744Z,4.30
2022-07-25T02:22:00.222Z,4.50
2022-07-25T02:24:26.812Z,4.40
2022-07-25T02:26:53.256Z,4.50
2022-07-25T02:29:21.876Z,4.10
2022-07-25T02:31:49.192Z,3.80
2022-07-25T02:34:15.639Z,4.10
2022-07-25T02:36:45.259Z,4.40
2022-07-25T02:39:11.906Z,4.70
2022-07-25T02:41:38.366Z,4.90
2022-07-25T02:44:06.080Z,5.00
2022-07-25T02:46:33.045Z,4.30
2022-07-25T02:49:00.125Z,4.80
2022-07-25T02:51:26.531Z,5.00
2022-07-25T02:53:58.193Z,5.30
2022-07-25T02:56:29.945Z,4.60
2022-07-25T02:58:59.414Z,5.00
2022-07-25T03:01:26.436Z,4.40
2022-07-25T03:03:53.060Z,5.50
2022-07-25T03:06:19.692Z,5.20
2022-07-25T03:08:47.402Z,5.10
2022-07-25T03:11:14.051Z,4.90
2022-07-25T03:13:40.499Z,3.80
2022-07-25T03:16:07.624Z,4.20
2022-07-25T03:18:34.051Z,4.10
2022-07-25T03:21:02.075Z,4.10
2022-07-25T03:23:30.442Z,4.10
2022-07-25T03:25:57.423Z,4.70
2022-07-25T03:28:24.782Z,4.40
2022-07-25T03:30:52.376Z,4.90
2022-07-25T03:33:19.147Z,4.40
2022-07-25T03:35:45.742Z,3.90
2022-07-25T03:38:12.202Z,4.10
2022-07-25T03:40:38.965Z,4.40
2022-07-25T03:43:05.790Z,3.80
2022-07-25T03:45:32.302Z,4.70
2022-07-25T03:47:58.852Z,4.60
2022-07-25T03:50:25.270Z,4.00
2022-07-25T03:52:51.784Z,4.00
2022-07-25T03:55:18.747Z,3.60
2022-07-25T03:57:45.520Z,4.40
2022-07-25T04:00:12.403Z,3.80
2022-07-25T04:02:39.489Z,3.10
2022-07-25T04:05:07.693Z,3.20
2022-07-25T04:07:35.114Z,3.60
2022-07-25T04:10:01.806Z,3.80
2022-07-25T04:12:28.346Z,3.80
2022-07-25T04:14:54.836Z,3.30
2022-07-25T04:17:21.530Z,3.70
2022-07-25T04:19:48.036Z,3.50
2022-07-25T04:22:16.275Z,4.10
2022-07-25T04:24:43.357Z,4.40
2022-07-25T04:27:09.801Z,3.70
2022-07-25T04:29:36.865Z,3.50
2022-07-25T04:32:03.676Z,3.50
2022-07-25T04:34:30.606Z,3.00
2022-07-25T04:36:57.427Z,3.60
2022-07-25T04:39:23.979Z,3.40
2022-07-25T04:41:50.968Z,3.50
2022-07-25T04:44:17.341Z,3.70
2022-07-25T04:46:43.952Z,4.00
2022-07-25T04:49:10.930Z,4.00
2022-07-25T04:51:37.491Z,4.10
2022-07-25T04:54:04.583Z,3.90
2022-07-25T04:56:31.402Z,3.90
2022-07-25T04:59:00.586Z,3.40
2022-07-25T05:01:29.734Z,3.10
2022-07-25T05:03:56.302Z,3.30
2022-07-25T05:06:25.964Z,3.00
2022-07-25T05:08:52.412Z,3.50
2022-07-25T05:11:19.249Z,4.10
2022-07-25T05:13:45.630Z,3.60
2022-07-25T05:16:12.291Z,3.70
2022-07-25T05:18:38.742Z,3.00
2022-07-25T05:21:05.112Z,2.60
2022-07-25T05:23:32.014Z,2.40
2022-07-25T05:25:58.463Z,2.70
2022-07-25T05:28:24.891Z,2.30
2022-07-25T05:30:51.417Z,2.70
2022-07-25T05:33:18.283Z,3.10
2022-07-25T05:35:46.322Z,2.50
2022-07-25T05:38:12.739Z,2.90
2022-07-25T05:40:39.209Z,2.70
2022-07-25T05:43:05.661Z,1.80
2022-07-25T05:45:32.236Z,2.40
2022-07-25T05:47:58.687Z,2.10
2022-07-25T05:50:25.144Z,2.10
2022-07-25T05:52:52.053Z,2.40
2022-07-25T05:55:19.226Z,1.80
2022-07-25T05:57:46.063Z,1.60
2022-07-25T06:00:13.009Z,1.80
2022-07-25T06:02:39.586Z,2.00
2022-07-25T06:05:06.334Z,1.50
2022-07-25T06:07:32.829Z,1.70
2022-07-25T06:09:59.343Z,0.80
2022-07-25T06:12:25.839Z,1.20
2022-07-25T06:14:52.704Z,1.00
2022-07-25T06:17:20.167Z,1.10
2022-07-25T06:19:46.801Z,1.20
2022-07-25T06:22:13.335Z,1.10
2022-07-25T06:24:41.284Z,0.90
2022-07-25T06:27:08.742Z,1.00
2022-07-25T06:29:35.258Z,1.20
2022-07-25T06:32:01.931Z,0.90
2022-07-25T06:34:29.960Z,1.60
2022-07-25T06:36:57.243Z,1.20
2022-07-25T06:39:25.203Z,0.80
2022-07-25T06:41:51.766Z,1.30
2022-07-25T06:44:18.477Z,1.20
2022-07-25T06:46:45.093Z,1.10
2022-07-25T06:49:11.712Z,0.90
2022-07-25T06:51:38.381Z,1.00
2022-07-25T06:54:05.021Z,1.00
2022-07-25T06:56:32.495Z,1.10
2022-07-25T06:58:59.837Z,0.90
2022-07-25T07:01:27.360Z,1.00
2022-07-25T07:03:54.019Z,1.00
2022-07-25T07:06:20.556Z,1.00
2022-07-25T07:08:48.306Z,0.90
2022-07-25T07:11:16.224Z,0.90
2022-07-25T07:13:42.896Z,0.90
2022-07-25T07:16:09.640Z,0.80
2022-07-25T07:18:37.223Z,0.80
2022-07-25T07:21:05.208Z,0.70
2022-07-25T07:23:33.004Z,1.00
2022-07-25T07:25:59.777Z,1.00
2022-07-25T07:28:26.480Z,1.00
2022-07-25T07:31:15.330Z,0.70
2022-07-25T07:33:39.787Z,1.00
2022-07-25T07:36:06.592Z,0.80
2022-07-25T07:38:33.995Z,1.00
2022-07-25T07:41:00.501Z,0.90
2022-07-25T07:43:30.365Z,0.90
2022-07-25T07:46:01.609Z,0.90
2022-07-25T07:48:30.402Z,1.00
2022-07-25T07:50:57.638Z,1.00
2022-07-25T07:53:44.147Z,1.10
2022-07-25T07:56:11.637Z,1.10
2022-07-25T07:58:44.810Z,0.90
2022-07-25T08:01:23.784Z,1.10
2022-07-25T08:03:52.818Z,0.90
2022-07-25T08:06:19.377Z,1.20
2022-07-25T08:08:45.973Z,1.80
2022-07-25T08:11:14.034Z,1.10
2022-07-25T08:13:40.536Z,1.00
2022-07-25T08:16:08.202Z,1.00
2022-07-25T08:18:34.732Z,1.10
2022-07-25T08:21:05.512Z,1.10
2022-07-25T08:23:34.824Z,1.20
2022-07-25T08:26:01.882Z,1.00
2022-07-25T08:28:28.429Z,2.10
2022-07-25T08:30:54.951Z,1.40
2022-07-25T08:33:21.842Z,1.50
2022-07-25T08:35:54.191Z,1.30
2022-07-25T08:38:23.299Z,1.20
2022-07-25T08:40:50.567Z,1.30
2022-07-25T08:43:18.247Z,1.60
2022-07-25T08:45:50.150Z,1.60
2022-07-25T08:48:19.485Z,1.70
2022-07-25T08:50:50.584Z,1.60
2022-07-25T08:53:35.763Z,1.40
2022-07-25T08:56:13.342Z,1.40
2022-07-25T08:58:43.786Z,1.40
2022-07-25T09:01:12.152Z,1.20
2022-07-25T09:03:40.903Z,1.00
2022-07-25T09:06:17.074Z,1.10
2022-07-25T09:08:59.783Z,1.40
2022-07-25T09:11:37.030Z,1.50
2022-07-25T09:14:13.187Z,1.70
2022-07-25T09:16:44.323Z,1.40
2022-07-25T09:19:16.139Z,1.70
2022-07-25T09:21:45.700Z,1.50
2022-07-25T09:24:16.626Z,1.40
2022-07-25T09:26:49.257Z,1.40
2022-07-25T09:29:22.019Z,1.20
2022-07-25T09:31:49.403Z,1.50
2022-07-25T09:34:44.073Z,1.70
2022-07-25T09:37:16.187Z,1.90
2022-07-25T09:39:47.151Z,1.60
2022-07-25T09:42:27.534Z,2.00
2022-07-25T09:45:02.367Z,2.00
2022-07-25T09:47:30.344Z,2.00
2022-07-25T09:49:57.228Z,1.70
2022-07-25T09:52:23.752Z,2.10
2022-07-25T09:54:50.819Z,2.20
2022-07-25T09:57:17.356Z,2.00
2022-07-25T09:59:44.382Z,1.80
2022-07-25T10:02:34.399Z,1.60
2022-07-25T10:05:18.191Z,1.80
2022-07-25T10:07:48.787Z,1.80
2022-07-25T10:10:26.323Z,1.70
2022-07-25T10:13:10.284Z,1.50
2022-07-25T10:15:48.436Z,1.80
2022-07-25T10:18:17.983Z,1.70
2022-07-25T10:20:46.081Z,1.30
2022-07-25T10:23:27.083Z,1.50
2022-07-25T10:26:09.112Z,1.10
2022-07-25T10:28:47.000Z,1.40
2022-07-25T10:31:18.023Z,1.60
2022-07-25T10:33:51.829Z,1.60
2022-07-25T10:36:20.691Z,1.60
2022-07-25T10:38:50.208Z,1.70
2022-07-25T10:41:16.874Z,1.70
2022-07-25T10:43:48.711Z,1.40
2022-07-25T10:46:22.632Z,1.40
2022-07-25T10:49:03.663Z,1.40
2022-07-25T10:51:56.072Z,1.60
2022-07-25T10:54:22.587Z,2.00
2022-07-25T10:56:58.179Z,2.10
2022-07-25T10:59:28.003Z,1.50
2022-07-25T11:01:54.961Z,1.50
2022-07-25T11:04:23.282Z,1.40
2022-07-25T11:06:49.965Z,1.60
2022-07-25T11:09:26.873Z,1.30
2022-07-25T11:11:56.911Z,1.40
2022-07-25T11:14:32.827Z,1.80
2022-07-25T11:17:19.622Z,1.50
2022-07-25T11:20:20.843Z,1.40
2022-07-25T11:22:55.213Z,1.50
2022-07-25T11:25:22.813Z,1.60
2022-07-25T11:27:56.669Z,1.50
2022-07-25T11:30:23.953Z,1.50
2022-07-25T11:32:55.536Z,1.40
2022-07-25T11:35:28.746Z,1.20
2022-07-25T11:37:56.623Z,1.30
2022-07-25T11:40:25.202Z,1.70
2022-07-25T11:42:53.886Z,1.30
2022-07-25T11:45:30.498Z,1.60
2022-07-25T11:48:07.041Z,1.40
2022-07-25T11:50:36.609Z,1.10
2022-07-25T11:53:10.834Z,1.30
2022-07-25T11:55:46.535Z,1.50
2022-07-25T11:58:14.021Z,1.50
2022-07-25T12:00:46.253Z,1.30
2022-07-25T12:03:19.606Z,1.70
2022-07-25T12:05:49.652Z,1.20
2022-07-25T12:08:22.668Z,1.70
2022-07-25T12:13:27.189Z,1.30
2022-07-25T12:15:56.690Z,1.40
2022-07-25T12:18:23.562Z,1.20
2022-07-25T12:20:50.390Z,1.20
2022-07-25T12:23:16.910Z,1.30
2022-07-25T12:25:45.639Z,1.10
2022-07-25T12:28:13.341Z,1.20
2022-07-25T12:30:41.888Z,1.30
2022-07-25T12:33:11.372Z,1.20
2022-07-25T12:35:39.910Z,1.50
2022-07-25T12:38:07.553Z,1.10
2022-07-25T12:40:34.095Z,1.40
2022-07-25T12:43:00.639Z,1.30
2022-07-25T12:45:27.699Z,0.90
2022-07-25T12:47:55.010Z,1.30
2022-07-25T12:50:25.101Z,1.50
2022-07-25T12:52:51.913Z,1.40
2022-07-25T12:55:19.471Z,1.20
2022-07-25T12:57:50.309Z,1.70
2022-07-25T13:00:19.995Z,1.60
2022-07-25T13:02:48.459Z,1.50
2022-07-25T13:05:15.435Z,1.20
2022-07-25T13:07:42.120Z,1.40
2022-07-25T13:10:09.785Z,1.40
2022-07-25T13:12:36.759Z,1.30
2022-07-25T13:15:03.728Z,1.20
2022-07-25T13:17:32.336Z,1.40
2022-07-25T13:19:59.630Z,1.10
2022-07-25T13:22:27.493Z,1.50
2022-07-25T13:24:55.181Z,1.60
2022-07-25T13:27:23.302Z,1.30
2022-07-25T13:29:53.554Z,1.30
2022-07-25T13:32:20.657Z,1.40
2022-07-25T13:34:47.125Z,1.10
2022-07-25T13:37:14.004Z,1.30
2022-07-25T13:39:41.833Z,1.10
2022-07-25T13:42:08.714Z,1.20
2022-07-25T13:44:35.744Z,1.20
2022-07-25T13:47:02.335Z,1.20
2022-07-25T13:49:30.819Z,1.40
2022-07-25T13:51:57.315Z,1.10
2022-07-25T13:54:23.741Z,1.20
2022-07-25T13:56:50.170Z,1.50
2022-07-25T13:59:21.180Z,1.40
2022-07-25T14:01:50.573Z,1.10
2022-07-25T14:04:17.274Z,1.00
2022-07-25T14:06:43.877Z,1.30
2022-07-25T14:09:11.165Z,1.00
2022-07-25T14:11:38.072Z,1.20
2022-07-25T14:14:04.543Z,1.30
2022-07-25T14:16:33.176Z,1.30
2022-07-25T14:19:00.701Z,1.20
2022-07-25T14:21:28.485Z,1.10
2022-07-25T14:23:55.987Z,1.80
2022-07-25T14:26:22.494Z,1.40
2022-07-25T14:28:49.384Z,1.80
2022-07-25T14:31:16.853Z,1.60
2022-07-25T14:33:43.285Z,1.10
2022-07-25T14:36:10.661Z,1.40
2022-07-25T14:38:37.143Z,1.30
2022-07-25T14:41:06.684Z,1.00
2022-07-25T14:43:37.566Z,1.20
2022-07-25T14:46:04.828Z,1.30
2022-07-25T14:48:31.437Z,1.40
2022-07-25T14:50:57.927Z,1.40
2022-07-25T14:53:24.419Z,1.50
2022-07-25T14:55:50.900Z,1.40
2022-07-25T14:58:17.847Z,1.30
2022-07-25T15:00:45.498Z,1.30
2022-07-25T15:03:12.182Z,1.30
2022-07-25T15:05:40.584Z,1.40
2022-07-25T15:08:07.599Z,1.40
2022-07-25T15:10:34.583Z,1.30
2022-07-25T15:13:28.685Z,1.20
2022-07-25T15:15:49.508Z,1.10
2022-07-25T15:18:15.948Z,1.20
2022-07-25T15:20:43.610Z,2.00
2022-07-25T15:23:11.438Z,1.30
2022-07-25T15:26:01.051Z,1.20
2022-07-25T15:28:25.374Z,1.50
2022-07-25T15:30:51.858Z,1.50
2022-07-25T15:33:18.824Z,1.40
2022-07-25T15:35:46.586Z,1.20
2022-07-25T15:38:15.038Z,1.40
2022-07-25T15:40:45.230Z,1.60
2022-07-25T15:43:12.010Z,1.40
2022-07-25T15:45:40.257Z,1.30
2022-07-25T15:48:08.678Z,1.80
2022-07-25T15:50:36.385Z,1.60
2022-07-25T15:53:04.466Z,1.60
2022-07-25T15:55:32.830Z,2.40
2022-07-25T15:58:00.081Z,1.80
2022-07-25T16:00:29.826Z,1.40
2022-07-25T16:02:58.034Z,1.50
2022-07-25T16:05:25.038Z,1.40
2022-07-25T16:07:52.319Z,1.40
2022-07-25T16:10:18.835Z,1.50
2022-07-25T16:12:45.423Z,1.30
2022-07-25T16:15:12.147Z,1.40
2022-07-25T16:17:38.577Z,1.60
2022-07-25T16:20:08.612Z,1.50
2022-07-25T16:22:35.507Z,1.50
2022-07-25T16:25:03.660Z,1.30
2022-07-25T16:27:30.289Z,1.60
2022-07-25T16:29:56.881Z,1.60
2022-07-25T16:32:23.592Z,1.40
2022-07-25T16:34:50.025Z,1.60
2022-07-25T16:37:19.707Z,1.40
2022-07-25T16:39:46.221Z,1.50
2022-07-25T16:42:12.766Z,1.80
2022-07-25T16:44:39.252Z,1.60
2022-07-25T16:47:07.636Z,1.60
2022-07-25T16:49:34.308Z,2.00
2022-07-25T16:52:00.824Z,1.60
2022-07-25T16:54:27.786Z,1.80
2022-07-25T16:56:57.274Z,1.70
2022-07-25T16:59:26.717Z,1.70
2022-07-25T17:01:53.302Z,1.50
2022-07-25T17:04:19.980Z,2.40
2022-07-25T17:06:46.732Z,3.40
2022-07-25T17:09:13.806Z,4.10
2022-07-25T17:11:40.607Z,5.00
2022-07-25T17:14:07.501Z,4.30
2022-07-25T17:16:34.519Z,2.30
2022-07-25T17:19:03.419Z,2.50
2022-07-25T17:21:30.299Z,2.30
2022-07-25T17:23:56.784Z,2.30
2022-07-25T17:26:23.380Z,2.30
2022-07-25T17:28:50.475Z,2.20
2022-07-25T17:31:18.355Z,2.60
2022-07-25T17:33:44.868Z,2.50
2022-07-25T17:36:11.498Z,2.40
2022-07-25T17:38:42.487Z,2.20
2022-07-25T17:41:13.073Z,2.70
2022-07-25T17:43:40.847Z,2.60
2022-07-25T17:46:10.519Z,2.60
2022-07-25T17:48:37.047Z,2.30
2022-07-25T17:51:05.574Z,3.00
2022-07-25T17:53:32.539Z,3.10
2022-07-25T17:55:59.020Z,3.40
2022-07-25T17:58:25.515Z,3.60
2022-07-25T18:00:51.921Z,3.80
2022-07-25T18:03:18.568Z,3.30
2022-07-25T18:05:45.101Z,3.70
2022-07-25T18:08:11.519Z,3.50
2022-07-25T18:10:38.185Z,3.20
2022-07-25T18:13:04.754Z,2.90
2022-07-25T18:15:31.707Z,2.90
2022-07-25T18:17:58.791Z,2.50
2022-07-25T18:20:27.425Z,2.50
2022-07-25T18:22:58.011Z,2.90
2022-07-25T18:25:24.461Z,2.90
2022-07-25T18:27:50.932Z,2.40
2022-07-25T18:30:18.689Z,3.20
2022-07-25T18:32:45.298Z,2.90
2022-07-25T18:35:12.847Z,2.80
2022-07-25T18:37:39.420Z,3.70
2022-07-25T18:40:07.487Z,2.70
2022-07-25T18:42:35.401Z,2.90
2022-07-25T18:45:04.332Z,2.60
2022-07-25T18:47:34.476Z,2.30
2022-07-25T18:50:03.220Z,2.30
2022-07-25T18:52:34.469Z,1.90
2022-07-25T18:55:08.412Z,1.50
2022-07-25T18:57:37.003Z,1.60
2022-07-25T19:00:07.068Z,1.90
2022-07-25T19:02:34.341Z,2.20
2022-07-25T19:05:01.314Z,4.70
2022-07-25T19:07:30.582Z,3.30
2022-07-25T19:09:57.081Z,3.00
2022-07-25T19:12:26.031Z,7.10
2022-07-25T19:14:54.061Z,4.80
2022-07-25T19:17:20.573Z,4.30
2022-07-25T19:19:47.078Z,9.80
2022-07-25T19:22:13.548Z,4.90
2022-07-25T19:24:40.120Z,6.00
2022-07-25T19:27:06.668Z,8.80
2022-07-25T19:29:33.479Z,7.00
2022-07-25T19:32:00.014Z,11.20
2022-07-25T19:34:29.582Z,9.90
2022-07-25T19:36:56.314Z,10.30
2022-07-25T19:39:23.961Z,14.60
2022-07-25T19:41:53.651Z,15.60
2022-07-25T19:44:23.257Z,16.40
2022-07-25T19:46:49.932Z,20.90
2022-07-25T19:49:16.660Z,23.70
2022-07-25T19:51:43.294Z,23.30
2022-07-25T19:54:10.740Z,25.00
2022-07-25T19:56:37.727Z,22.40
2022-07-25T19:59:06.113Z,25.90
2022-07-25T20:01:36.226Z,25.30
2022-07-25T20:04:05.474Z,21.90
2022-07-25T20:06:36.300Z,13.10
2022-07-25T20:09:03.900Z,27.00
2022-07-25T20:11:30.747Z,22.20
2022-07-25T20:13:57.406Z,33.80
2022-07-25T20:16:24.148Z,31.40
2022-07-25T20:18:51.201Z,30.80
2022-07-25T20:21:18.019Z,25.60
2022-07-25T20:23:47.556Z,22.20
2022-07-25T20:26:14.900Z,18.20
2022-07-25T20:28:41.777Z,13.30
2022-07-25T20:31:09.205Z,15.00
2022-07-25T20:33:36.226Z,9.10
2022-07-25T20:36:03.852Z,7.00
2022-07-25T20:38:32.005Z,6.90
2022-07-25T20:40:59.948Z,8.40
2022-07-25T20:43:27.939Z,7.80
2022-07-25T20:45:54.680Z,8.20
2022-07-25T20:48:21.215Z,6.80
2022-07-25T20:50:48.005Z,7.00
2022-07-25T20:53:14.628Z,6.20
2022-07-25T20:55:41.194Z,7.40
2022-07-25T20:58:07.674Z,7.10
2022-07-25T21:00:34.440Z,7.30
2022-07-25T21:03:02.633Z,7.20
2022-07-25T21:05:29.055Z,6.70
2022-07-25T21:07:56.287Z,6.70
2022-07-25T21:10:23.244Z,5.90
2022-07-25T21:12:49.744Z,6.90
2022-07-25T21:15:16.252Z,7.30
2022-07-25T21:17:43.521Z,6.00
2022-07-25T21:20:13.409Z,6.70
2022-07-25T21:22:40.958Z,6.50
2022-07-25T21:25:08.884Z,6.70
2022-07-25T21:27:36.619Z,5.90
2022-07-25T21:30:05.228Z,6.10
2022-07-25T21:32:32.007Z,6.00
2022-07-25T21:34:59.189Z,4.70
2022-07-25T21:37:25.947Z,4.90
2022-07-25T21:39:52.596Z,5.20
2022-07-25T21:42:19.144Z,5.60
2022-07-25T21:44:45.640Z,5.50
2022-07-25T21:47:12.185Z,5.30
2022-07-25T21:49:57.399Z,5.80
2022-07-25T21:52:29.829Z,4.80
2022-07-25T21:55:04.741Z,5.20
2022-07-25T21:57:31.431Z,4.80
2022-07-25T21:59:58.060Z,5.90
2022-07-25T22:02:25.075Z,6.10
2022-07-25T22:04:51.583Z,5.80
2022-07-25T22:07:19.091Z,5.80
2022-07-25T22:09:45.508Z,5.60
2022-07-25T22:12:12.094Z,5.60
2022-07-25T22:14:38.652Z,6.50
2022-07-25T22:17:05.267Z,6.10
2022-07-25T22:19:32.218Z,6.50
2022-07-25T22:21:58.763Z,6.10
2022-07-25T22:24:25.261Z,6.30
2022-07-25T22:26:51.637Z,5.80
2022-07-25T22:29:18.473Z,5.20
2022-07-25T22:31:45.040Z,5.70
2022-07-25T22:34:11.951Z,5.60
2022-07-25T22:36:38.385Z,6.20
2022-07-25T22:39:05.244Z,6.10
2022-07-25T22:41:32.029Z,5.80
2022-07-25T22:44:00.078Z,6.70
2022-07-25T22:46:31.008Z,6.70
2022-07-25T22:48:58.449Z,6.40
2022-07-25T22:51:25.971Z,6.30
2022-07-25T22:53:53.211Z,6.20
2022-07-25T22:56:20.186Z,6.90
2022-07-25T22:58:47.023Z,6.30
2022-07-25T23:01:17.140Z,6.40
2022-07-25T23:03:43.774Z,6.50
2022-07-25T23:06:10.940Z,5.70
2022-07-25T23:08:37.480Z,6.50
2022-07-25T23:11:05.521Z,7.30
2022-07-25T23:13:32.946Z,7.00
2022-07-25T23:15:59.584Z,7.20
2022-07-25T23:18:26.088Z,7.50
2022-07-25T23:20:52.586Z,7.30
2022-07-25T23:23:20.397Z,7.50
2022-07-25T23:25:46.925Z,8.00
2022-07-25T23:28:13.314Z,7.90
2022-07-25T23:30:40.698Z,7.90
2022-07-25T23:33:08.177Z,7.80
2022-07-25T23:35:34.743Z,8.00
2022-07-25T23:38:01.494Z,9.60
2022-07-25T23:40:27.908Z,10.10
2022-07-25T23:42:54.357Z,10.00
2022-07-25T23:45:22.143Z,9.30
2022-07-25T23:47:52.047Z,9.50
2022-07-25T23:50:19.601Z,8.40
2022-07-25T23:52:45.994Z,7.80
2022-07-25T23:55:12.493Z,6.50
2022-07-25T23:57:39.107Z,5.40
